Главная страница
METAR-TAF:

METAR-TAF

Аэропорты :

Wheeling - Ohio County Airport

Уилинг, Западная Виргиния, США

широта: 40-10-13N, долгота: 080-38-40W, высота над уровнем моря: 364 м

Текущие метеонаблюдения

Эта сводка был подготовлена 1 час и 3 минут назад, в 13:53 UTC
Ветер 4 Узел от южный-юго-западный
Температура 25°C
Влажность 57%
Давление 1023 hPa
Видимость: 16.1 км
ясное небо

METAR: KHLG 091353Z 21004KT 10SM CLR 25/16 A3020 RMK AO2 SLP220 T02500161

Время: 10:56 (14:56 UTC)

Прогноз

Эта сводка был подготовлена 3 часа и 23 минут назад, в 11:33 UTC
Прогноз действительный с 09-го 12 UTC до 10-го 12 UTC
Ветер 4 Узел переменных направлений
Видимость: 10 км
Отдельные облака на высоте 4000 фута

TAF: KHLG 091133Z 0912/1012 VRB04KT P6SM SCT040

Метеонаблюдения и прогнозы для более 4000 аэропортов (сводки METAR и TAF).

Имеющиеся станции представлены на карте желтыми и красными точками.

Чтобы увидеть название станции, наведите на нее мышь.

Затем щелкните, чтобы увидеть метеонаблюдения и метеопрогнозы.

Управление картой: чтобы увеличить масштаб, щелкните зеленые кнопки с черным крестиком; чтобы уменьшить масштаб, щелкните зеленую кнопку с тире; для просмотра соседних карт щелкайте зеленые стрелки.


METAR-TAF: